Terminal Aerodrome Forecast
Issued by NWS

Current Version | Previous Version | Graphics & Text | Print | Product List | Glossary On
Versions: 1 2 3 4 5 6 7 8 9 10 11 12 13 14 15 16 17 18 19 20 21
000
FTUS41 KRNK 211126
TAFLWB
TAF
KLWB 211126Z 2112/2212 04004KT P6SM BKN250
      TEMPO 2113/2117 BKN025
     FM211700 10005KT P6SM BKN035
     FM211800 16007KT P6SM BKN040
     FM220300 VRB03KT P6SM BKN060
     FM220800 00000KT P6SM -SHRA OVC030
     FM221000 00000KT 3SM -SHRA BR OVC020=

USA.gov is the U.S. government's official web portal to all federal, state and local government web resources and services.